Terminal Aerodrome Forecast
Issued by NWS

Home | Current Version | Previous Version | Text Only | Print | Product List | Glossary On
Versions: 1 2 3 4 5 6 7 8 9 10 11 12 13 14 15 16 17 18 19 20 21 22 23 24 25 26 27 28 29 30 31 32
102
FTUS44 KHGX 210533
TAFSGR
TAF
KSGR 210533Z 2106/2206 18005KT P6SM SCT025 BKN250
     FM210700 11008KT P6SM BKN025
     FM211100 11009KT P6SM VCSH SCT008 BKN015 OVC025
     FM211600 12011KT P6SM SCT015 BKN025 BKN060
     FM212200 13009KT P6SM VCTS BKN025CB BKN040 PROB30 2200/2206
      TSRA BKN015CB=

USA.gov is the U.S. government's official web portal to all federal, state and local government web resources and services.